Terminal Aerodrome Forecast
Issued by NWS Amarillo, TX

Home | Current Version | Previous Version | Text Only | Print | Product List | Glossary On
Versions: 1 2 3 4 5 6 7 8 9 10 11 12 13
863
FTUS44 KAMA 110520
TAFAMA
TAF
KAMA 110520Z 1106/1206 29010KT P6SM SCT250
     FM110800 36010KT P6SM BKN250
     FM112000 27005KT P6SM SCT250
     FM120000 18008KT P6SM SCT250=

USA.gov is the U.S. government's official web portal to all federal, state and local government web resources and services.